Sim-Planet VA

Sim-Planet Nouvel Horizon. By: Anthony Pay
Since 2020.




 METAR ET TAF INFORMATION
METAR FOR EGLC
ADDS - METARS form results

(1507 UTC 20 September 2021)
Data provider http://aviationweather.gov/metar/data/
 
METAR text: EGLC 201450Z AUTO 33006KT 280V010 9999 BKN029 18/14 Q1024
Conditions at: EGLC (LONDON CITY AIRP, GB) observed 1450 UTC 20 September 2021
Temperature: 18.0°C (64°F)
Dewpoint: 14.0°C (57°F) [RH = 77%]
Pressure (altimeter): 30.24 inches Hg (1024.0 mb)
Winds: from the NNW (330 degrees) at 7 MPH (6 knots; 3.1 m/s)
Visibility: 6 or more miles (10+ km)
Ceiling: 2900 feet AGL
Clouds: broken clouds at 2900 feet AGL
Weather: no significant weather observed at this time

METAR text: EGLC 201420Z AUTO 33004KT 250V020 9999 BKN020 OVC031 18/14 Q1024
Conditions at: EGLC (LONDON CITY AIRP, GB) observed 1420 UTC 20 September 2021
Temperature: 18.0°C (64°F)
Dewpoint: 14.0°C (57°F) [RH = 77%]
Pressure (altimeter): 30.24 inches Hg (1024.0 mb)
Winds: from the NNW (330 degrees) at 5 MPH (4 knots; 2.1 m/s)
Visibility: 6 or more miles (10+ km)
Ceiling: 2000 feet AGL
Clouds: broken clouds at 2000 feet AGL
overcast cloud deck at 3100 feet AGL
Weather: no significant weather observed at this time

Forecast for: EGLC (LONDON CITY AIRP, GB)
Text: TAF EGLC 201407Z 2015/2021 36006KT 9999 BKN025
Forecast period: 1500 to 2100 UTC 20 September 2021
Forecast type: FROM: standard forecast or significant change
Winds: from the N (360 degrees) at 7 MPH (6 knots; 3.1 m/s)
Visibility: 6 or more miles (10+ km)
Ceiling: 2500 feet AGL
Clouds: broken clouds at 2500 feet AGL
Weather: no significant weather forecast for this period

 AÉROPORT DE AÉROPORT

 INFORMATIONS DE PISTE
Piste 10 Longueur de la piste 4948 ft Largeur de la piste 98 ft
Élévation de la piste 16 ft Seuil de la piste déplacés 358 ft Runway heading 93
Piste 28 Longueur de la piste 4948 ft Largeur de la piste 98 ft
Élévation de la piste 19 ft Seuil de la piste déplacés 211 ft Runway heading 273

 AÉROPORT FRÉQUENCES
Type APP Nom APP Féquence 132.7 MHZ
Type ATIS Nom ATIS Féquence 136.35 MHZ
Type GND Nom GND Féquence 121.825 MHZ
Type TWR Nom TWR Féquence 118.075 MHZ

 SIDA DE NAVIGATION
Type NDB Nom City Féquence 322 KHZ

Nos Partenaires